createdAt,value
2018-09-11T00:00:55.116Z,0.00
2018-09-11T00:01:55.169Z,0.00
2018-09-11T00:02:55.139Z,0.00
2018-09-11T00:03:55.176Z,0.00
2018-09-11T00:04:55.147Z,0.00
2018-09-11T00:05:55.182Z,0.00
2018-09-11T00:06:55.266Z,0.00
2018-09-11T00:07:55.211Z,0.00
2018-09-11T00:08:55.217Z,0.00
2018-09-11T00:09:55.234Z,0.00
2018-09-11T00:10:55.243Z,0.00
2018-09-11T00:11:55.237Z,0.00
2018-09-11T00:12:55.283Z,0.00
2018-09-11T00:13:55.263Z,0.00
2018-09-11T00:14:55.304Z,0.00
2018-09-11T00:15:55.308Z,0.00
2018-09-11T00:16:55.311Z,0.00
2018-09-11T00:17:55.325Z,0.00
2018-09-11T00:18:55.357Z,0.00
2018-09-11T00:19:55.387Z,0.00
2018-09-11T00:20:55.367Z,0.00
2018-09-11T00:21:55.362Z,0.00
2018-09-11T00:22:55.378Z,0.00
2018-09-11T00:23:55.428Z,0.00
2018-09-11T00:24:55.395Z,0.00
2018-09-11T00:25:55.464Z,0.00
2018-09-11T00:26:55.405Z,0.00
2018-09-11T00:27:55.449Z,0.00
2018-09-11T00:28:55.450Z,0.00
2018-09-11T00:29:55.482Z,0.00
2018-09-11T00:30:55.498Z,0.00
2018-09-11T00:31:55.514Z,0.00
2018-09-11T00:32:55.496Z,0.00
2018-09-11T00:33:55.546Z,0.00
2018-09-11T00:34:55.538Z,0.00
2018-09-11T00:35:55.538Z,0.00
2018-09-11T00:36:55.554Z,0.00
2018-09-11T00:37:55.556Z,0.00
2018-09-11T00:38:55.564Z,0.00
2018-09-11T00:39:55.579Z,0.00
2018-09-11T00:40:55.626Z,0.00
2018-09-11T00:41:55.612Z,0.00
2018-09-11T00:42:55.653Z,0.00
2018-09-11T00:43:55.610Z,0.00
2018-09-11T00:44:55.647Z,0.00
2018-09-11T00:45:55.647Z,0.00
2018-09-11T00:46:55.640Z,0.00
2018-09-11T00:47:55.723Z,0.00
2018-09-11T00:48:55.670Z,0.00
2018-09-11T00:49:55.748Z,0.00
2018-09-11T00:50:55.755Z,0.00
2018-09-11T00:51:55.777Z,0.00
2018-09-11T00:52:55.732Z,0.00
2018-09-11T00:53:55.720Z,0.00
2018-09-11T00:54:55.766Z,0.00
2018-09-11T00:55:55.801Z,0.00
2018-09-11T00:56:55.786Z,0.00
2018-09-11T00:57:55.961Z,0.00
2018-09-11T00:58:55.808Z,0.00
2018-09-11T00:59:55.793Z,0.00
2018-09-11T01:00:55.816Z,0.00
2018-09-11T01:01:55.826Z,0.00
2018-09-11T01:02:55.838Z,0.00
2018-09-11T01:03:55.888Z,0.00
2018-09-11T01:04:56.083Z,0.00
2018-09-11T01:05:55.870Z,0.00
2018-09-11T01:06:55.895Z,0.00
2018-09-11T01:07:55.928Z,0.00
2018-09-11T01:08:55.958Z,0.00
2018-09-11T01:09:55.944Z,0.00
2018-09-11T01:10:55.947Z,0.00
2018-09-11T01:11:55.954Z,0.00
2018-09-11T01:12:55.955Z,0.00
2018-09-11T01:13:55.993Z,0.00
2018-09-11T01:14:56.014Z,0.00
2018-09-11T01:15:56.011Z,0.00
2018-09-11T01:16:56.005Z,0.00
2018-09-11T01:17:56.020Z,0.00
2018-09-11T01:18:56.083Z,0.00
2018-09-11T01:19:56.036Z,0.00
2018-09-11T01:20:56.066Z,0.00
2018-09-11T01:21:56.049Z,0.00
2018-09-11T01:22:56.078Z,0.00
2018-09-11T01:23:56.085Z,0.00
2018-09-11T01:24:56.141Z,0.00
2018-09-11T01:25:56.100Z,0.00
2018-09-11T01:26:56.134Z,0.00
2018-09-11T01:27:56.143Z,0.00
2018-09-11T01:28:56.167Z,0.00
2018-09-11T01:29:56.167Z,0.00
2018-09-11T01:30:56.156Z,0.00
2018-09-11T01:31:56.206Z,0.00
2018-09-11T01:32:56.183Z,0.00
2018-09-11T01:33:56.195Z,0.00
2018-09-11T01:34:56.204Z,0.00
2018-09-11T01:35:56.208Z,0.00
2018-09-11T01:36:56.272Z,0.00
2018-09-11T01:37:56.224Z,0.00
2018-09-11T01:38:56.246Z,0.00
2018-09-11T01:39:56.269Z,0.00
2018-09-11T01:40:56.277Z,0.00
2018-09-11T01:41:56.296Z,0.00
2018-09-11T01:42:56.416Z,0.00
2018-09-11T01:43:56.307Z,0.00
2018-09-11T01:44:56.332Z,0.00
2018-09-11T01:45:56.329Z,0.00
2018-09-11T01:46:56.351Z,0.00
2018-09-11T01:47:56.395Z,0.00
2018-09-11T01:48:56.355Z,0.00
2018-09-11T01:49:56.431Z,0.00
2018-09-11T01:50:56.433Z,0.00
2018-09-11T01:51:56.400Z,0.00
2018-09-11T01:52:56.421Z,0.00
2018-09-11T01:53:56.425Z,0.00
2018-09-11T01:54:56.452Z,0.00
2018-09-11T01:55:56.436Z,0.00
2018-09-11T01:56:56.457Z,0.00
2018-09-11T01:57:56.463Z,0.00
2018-09-11T01:58:56.543Z,0.00
2018-09-11T01:59:56.523Z,0.00
2018-09-11T02:00:56.529Z,0.00
2018-09-11T02:01:56.527Z,0.00
2018-09-11T02:02:56.530Z,0.00
2018-09-11T02:03:56.551Z,0.00
2018-09-11T02:04:56.608Z,0.00
2018-09-11T02:05:56.566Z,0.00
2018-09-11T02:06:56.575Z,0.00
2018-09-11T02:07:56.591Z,0.00
2018-09-11T02:08:56.609Z,0.00
2018-09-11T02:09:56.653Z,0.00
2018-09-11T02:10:56.602Z,0.00
2018-09-11T02:11:56.647Z,0.00
2018-09-11T02:12:56.637Z,0.00
2018-09-11T02:13:56.680Z,0.00
2018-09-11T02:14:56.670Z,0.00
2018-09-11T02:15:56.704Z,0.00
2018-09-11T02:16:56.720Z,0.00
2018-09-11T02:17:56.716Z,0.00
2018-09-11T02:18:56.737Z,0.00
2018-09-11T02:19:56.767Z,0.00
2018-09-11T02:20:56.733Z,0.00
2018-09-11T02:21:56.750Z,0.00
2018-09-11T02:22:56.771Z,0.00
2018-09-11T02:23:56.772Z,0.00
2018-09-11T02:24:56.823Z,0.00
2018-09-11T02:25:56.806Z,0.00
2018-09-11T02:26:56.793Z,0.00
2018-09-11T02:27:56.834Z,0.00
2018-09-11T02:28:56.822Z,0.00
2018-09-11T02:29:56.897Z,0.00
2018-09-11T02:30:56.884Z,0.00
2018-09-11T02:31:56.866Z,0.00
2018-09-11T02:32:56.871Z,0.00
2018-09-11T02:33:56.898Z,0.00
2018-09-11T02:34:56.896Z,0.00
2018-09-11T02:35:56.939Z,0.00
2018-09-11T02:36:56.913Z,0.00
2018-09-11T02:37:56.942Z,0.00
2018-09-11T02:38:56.942Z,0.00
2018-09-11T02:39:56.945Z,0.00
2018-09-11T02:40:57.007Z,0.00
2018-09-11T02:41:56.961Z,0.00
2018-09-11T02:42:57.001Z,0.00
2018-09-11T02:43:56.994Z,0.00
2018-09-11T02:44:57.019Z,0.00
2018-09-11T02:45:57.046Z,0.00
2018-09-11T02:46:57.028Z,0.00
2018-09-11T02:47:57.085Z,0.00
2018-09-11T02:48:57.121Z,0.00
2018-09-11T02:49:57.089Z,0.00
2018-09-11T02:50:57.104Z,0.00
2018-09-11T02:51:57.119Z,0.00
2018-09-11T02:52:57.118Z,0.00
2018-09-11T02:53:57.162Z,0.00
2018-09-11T02:54:57.146Z,0.00
2018-09-11T02:55:57.151Z,0.00
2018-09-11T02:56:57.156Z,0.00
2018-09-11T02:57:57.166Z,0.00
2018-09-11T02:58:57.188Z,0.00
2018-09-11T02:59:57.201Z,0.00
2018-09-11T03:00:57.238Z,0.00
2018-09-11T03:01:57.206Z,0.00
2018-09-11T03:02:57.242Z,0.00
2018-09-11T03:03:57.256Z,0.00
2018-09-11T03:04:57.242Z,0.00
2018-09-11T03:05:57.298Z,0.00
2018-09-11T03:06:57.266Z,0.00
2018-09-11T03:07:57.289Z,0.00
2018-09-11T03:08:57.268Z,0.00
2018-09-11T03:09:57.281Z,0.00
2018-09-11T03:10:57.326Z,0.00
2018-09-11T03:11:57.313Z,0.00
2018-09-11T03:12:57.402Z,0.00
2018-09-11T03:13:57.354Z,0.00
2018-09-11T03:14:57.381Z,0.00
2018-09-11T03:15:57.385Z,0.00
2018-09-11T03:16:57.384Z,0.00
2018-09-11T03:17:57.406Z,0.00
2018-09-11T03:18:57.515Z,0.00
2018-09-11T03:19:57.452Z,0.00
2018-09-11T03:20:57.424Z,0.00
2018-09-11T03:21:57.457Z,0.00
2018-09-11T03:22:57.459Z,0.00
2018-09-11T03:23:57.488Z,0.00
2018-09-11T03:24:57.476Z,0.00
2018-09-11T03:25:57.495Z,0.00
2018-09-11T03:26:57.502Z,0.00
2018-09-11T03:27:57.518Z,0.00
2018-09-11T03:28:57.552Z,0.00
2018-09-11T03:29:57.563Z,0.00
2018-09-11T03:30:57.560Z,0.00
2018-09-11T03:31:57.546Z,0.00
2018-09-11T03:32:57.595Z,0.00
2018-09-11T03:33:57.589Z,0.00
2018-09-11T03:34:57.733Z,0.00
2018-09-11T03:35:57.576Z,0.00
2018-09-11T03:36:57.622Z,0.00
2018-09-11T03:37:57.628Z,0.00
2018-09-11T03:38:57.635Z,0.00
2018-09-11T03:39:57.685Z,0.00
2018-09-11T03:40:57.668Z,0.00
2018-09-11T03:41:57.652Z,0.00
2018-09-11T03:42:57.684Z,0.00
2018-09-11T03:43:57.700Z,0.00
2018-09-11T03:44:57.707Z,0.00
2018-09-11T03:45:57.734Z,0.00
2018-09-11T03:46:57.719Z,0.00
2018-09-11T03:47:57.732Z,0.00
2018-09-11T03:48:57.731Z,0.00
2018-09-11T03:49:57.752Z,0.00
2018-09-11T03:50:57.809Z,0.00
2018-09-11T03:51:57.788Z,0.00
2018-09-11T03:52:57.776Z,0.00
2018-09-11T03:53:57.794Z,0.00
2018-09-11T03:54:57.839Z,0.00
2018-09-11T03:55:57.853Z,0.00
2018-09-11T03:56:57.861Z,0.00
2018-09-11T03:57:57.869Z,0.00
2018-09-11T03:58:57.887Z,0.00
2018-09-11T03:59:57.898Z,0.00
2018-09-11T04:00:57.887Z,0.00
2018-09-11T04:01:57.904Z,0.00
2018-09-11T04:02:57.915Z,0.00
2018-09-11T04:03:57.921Z,0.00
2018-09-11T04:04:57.968Z,0.00
2018-09-11T04:05:57.943Z,0.00
2018-09-11T04:06:57.963Z,0.00
2018-09-11T04:07:57.962Z,0.00
2018-09-11T04:08:57.959Z,0.00
2018-09-11T04:09:58.052Z,4.00
2018-09-11T04:10:58.007Z,4.00
2018-09-11T04:11:58.018Z,0.00
2018-09-11T04:12:58.018Z,4.00
2018-09-11T04:13:58.028Z,4.00
2018-09-11T04:14:58.079Z,8.00
2018-09-11T04:15:58.044Z,4.00
2018-09-11T04:16:58.069Z,8.00
2018-09-11T04:17:58.141Z,4.00
2018-09-11T04:18:58.104Z,8.00
2018-09-11T04:19:58.131Z,8.00
2018-09-11T04:20:58.111Z,12.00
2018-09-11T04:21:58.104Z,12.00
2018-09-11T04:22:58.125Z,16.00
2018-09-11T04:23:58.140Z,20.00
2018-09-11T04:24:58.158Z,24.00
2018-09-11T04:25:58.169Z,24.00
2018-09-11T04:26:58.190Z,28.00
2018-09-11T04:27:58.211Z,32.00
2018-09-11T04:28:58.231Z,32.00
2018-09-11T04:29:58.205Z,40.00
2018-09-11T04:30:58.238Z,44.00
2018-09-11T04:31:58.249Z,44.00
2018-09-11T04:32:58.557Z,48.00
2018-09-11T04:33:58.275Z,56.00
2018-09-11T04:34:58.299Z,60.00
2018-09-11T04:35:58.347Z,68.00
2018-09-11T04:36:58.289Z,72.00
2018-09-11T04:37:58.393Z,72.00
2018-09-11T04:38:58.317Z,80.00
2018-09-11T04:39:58.320Z,92.00
2018-09-11T04:40:58.378Z,100.00
2018-09-11T04:41:58.468Z,112.00
2018-09-11T04:42:58.496Z,120.00
2018-09-11T04:43:58.372Z,132.00
2018-09-11T04:44:58.388Z,144.00
2018-09-11T04:45:58.435Z,164.00
2018-09-11T04:46:58.431Z,180.00
2018-09-11T04:47:58.434Z,196.00
2018-09-11T04:48:58.491Z,212.00
2018-09-11T04:49:58.454Z,228.00
2018-09-11T04:50:58.453Z,248.00
2018-09-11T04:51:58.449Z,268.00
2018-09-11T04:52:58.467Z,288.00
2018-09-11T04:53:58.550Z,312.00
2018-09-11T04:54:58.476Z,328.00
2018-09-11T04:55:58.658Z,352.00
2018-09-11T04:56:58.534Z,376.00
2018-09-11T04:57:58.514Z,404.00
2018-09-11T04:58:58.554Z,428.00
2018-09-11T04:59:58.550Z,448.00
2018-09-11T05:00:58.563Z,464.00
2018-09-11T05:01:59.055Z,476.00
2018-09-11T05:02:58.591Z,480.00
2018-09-11T05:03:58.637Z,492.00
2018-09-11T05:04:58.616Z,500.00
2018-09-11T05:05:58.619Z,508.00
2018-09-11T05:06:58.693Z,524.00
2018-09-11T05:07:58.664Z,540.00
2018-09-11T05:08:58.676Z,548.00
2018-09-11T05:09:58.649Z,556.00
2018-09-11T05:10:58.710Z,580.00
2018-09-11T05:11:58.696Z,616.00
2018-09-11T05:12:58.701Z,636.00
2018-09-11T05:13:58.763Z,644.00
2018-09-11T05:14:58.736Z,700.00
2018-09-11T05:15:58.742Z,776.00
2018-09-11T05:16:58.753Z,836.00
2018-09-11T05:17:58.786Z,884.00
2018-09-11T05:18:58.864Z,912.00
2018-09-11T05:19:58.774Z,940.00
2018-09-11T05:20:58.797Z,968.00
2018-09-11T05:21:58.810Z,1000.00
2018-09-11T05:22:58.820Z,1028.00
2018-09-11T05:23:58.857Z,1048.00
2018-09-11T05:24:58.840Z,1072.00
2018-09-11T05:25:58.839Z,1096.00
2018-09-11T05:26:58.870Z,1100.00
2018-09-11T05:27:58.870Z,1080.00
2018-09-11T05:28:58.925Z,1072.00
2018-09-11T05:29:58.916Z,1072.00
2018-09-11T05:30:58.910Z,1076.00
2018-09-11T05:31:58.913Z,1068.00
2018-09-11T05:32:58.932Z,1060.00
2018-09-11T05:33:58.941Z,1068.00
2018-09-11T05:34:58.993Z,1104.00
2018-09-11T05:35:59.015Z,1168.00
2018-09-11T05:36:58.956Z,1248.00
2018-09-11T05:37:59.004Z,1312.00
2018-09-11T05:38:59.083Z,1336.00
2018-09-11T05:39:59.004Z,1340.00
2018-09-11T05:40:59.034Z,1348.00
2018-09-11T05:41:59.032Z,1388.00
2018-09-11T05:42:59.023Z,1440.00
2018-09-11T05:43:59.068Z,1512.00
2018-09-11T05:44:59.081Z,1600.00
2018-09-11T05:45:59.131Z,1656.00
2018-09-11T05:46:59.126Z,1736.00
2018-09-11T05:47:59.112Z,1796.00
2018-09-11T05:48:59.105Z,1832.00
2018-09-11T05:49:59.170Z,1820.00
2018-09-11T05:50:59.184Z,1744.00
2018-09-11T05:51:59.172Z,1676.00
2018-09-11T05:52:59.225Z,1716.00
2018-09-11T05:53:59.172Z,1776.00
2018-09-11T05:54:59.197Z,1800.00
2018-09-11T05:55:59.190Z,1844.00
2018-09-11T05:56:59.231Z,1852.00
2018-09-11T05:57:59.249Z,1852.00
2018-09-11T05:58:59.254Z,1868.00
2018-09-11T05:59:59.242Z,1888.00
2018-09-11T06:00:59.274Z,1932.00
2018-09-11T06:01:59.329Z,1944.00
2018-09-11T06:02:59.282Z,1908.00
2018-09-11T06:03:59.332Z,1872.00
2018-09-11T06:04:59.314Z,1832.00
2018-09-11T06:05:59.322Z,1824.00
2018-09-11T06:06:59.340Z,1800.00
2018-09-11T06:07:59.367Z,1804.00
2018-09-11T06:08:59.375Z,1860.00
2018-09-11T06:09:59.352Z,1904.00
2018-09-11T06:10:59.353Z,1892.00
2018-09-11T06:11:59.386Z,1852.00
2018-09-11T06:12:59.452Z,1804.00
2018-09-11T06:13:59.429Z,1796.00
2018-09-11T06:14:59.425Z,1804.00
2018-09-11T06:15:59.430Z,1820.00
2018-09-11T06:16:59.481Z,1920.00
2018-09-11T06:17:59.446Z,2076.00
2018-09-11T06:18:59.488Z,2224.00
2018-09-11T06:19:59.505Z,2368.00
2018-09-11T06:20:59.467Z,2476.00
2018-09-11T06:21:59.512Z,2500.00
2018-09-11T06:22:59.521Z,2476.00
2018-09-11T06:23:59.525Z,2452.00
2018-09-11T06:24:59.567Z,2476.00
2018-09-11T06:25:59.553Z,2532.00
2018-09-11T06:26:59.596Z,2620.00
2018-09-11T06:27:59.576Z,2712.00
2018-09-11T06:28:59.568Z,2836.00
2018-09-11T06:29:59.624Z,2940.00
2018-09-11T06:30:59.613Z,3132.00
2018-09-11T06:31:59.621Z,3340.00
2018-09-11T06:32:59.643Z,3500.00
2018-09-11T06:33:59.639Z,3612.00
2018-09-11T06:34:59.659Z,3652.00
2018-09-11T06:35:59.673Z,3652.00
2018-09-11T06:36:59.671Z,3672.00
2018-09-11T06:37:59.710Z,3720.00
2018-09-11T06:38:59.689Z,3768.00
2018-09-11T06:39:59.703Z,3768.00
2018-09-11T06:40:59.777Z,3672.00
2018-09-11T06:41:59.734Z,3492.00
2018-09-11T06:42:59.861Z,3348.00
2018-09-11T06:43:59.762Z,3324.00
2018-09-11T06:44:59.788Z,3352.00
2018-09-11T06:45:59.816Z,3376.00
2018-09-11T06:46:59.841Z,3356.00
2018-09-11T06:47:59.837Z,3256.00
2018-09-11T06:48:59.805Z,3176.00
2018-09-11T06:49:59.996Z,3128.00
2018-09-11T06:50:59.848Z,3160.00
2018-09-11T06:51:59.874Z,3296.00
2018-09-11T06:52:59.874Z,3476.00
2018-09-11T06:53:59.872Z,3640.00
2018-09-11T06:54:59.879Z,3808.00
2018-09-11T06:55:59.905Z,3944.00
2018-09-11T06:56:59.972Z,4056.00
2018-09-11T06:57:59.931Z,4152.00
2018-09-11T06:58:59.978Z,4264.00
2018-09-11T07:00:00.224Z,4336.00
2018-09-11T07:00:59.970Z,4300.00
2018-09-11T07:02:00.070Z,4248.00
2018-09-11T07:02:59.998Z,4288.00
2018-09-11T07:03:59.997Z,4420.00
2018-09-11T07:05:00.214Z,4504.00
2018-09-11T07:06:00.222Z,4524.00
2018-09-11T07:07:00.037Z,4456.00
2018-09-11T07:08:00.097Z,4556.00
2018-09-11T07:09:00.078Z,4776.00
2018-09-11T07:10:00.058Z,4900.00
2018-09-11T07:11:00.078Z,5028.00
2018-09-11T07:12:00.158Z,5120.00
2018-09-11T07:13:00.128Z,5128.00
2018-09-11T07:14:00.203Z,5016.00
2018-09-11T07:15:00.148Z,5008.00
2018-09-11T07:16:00.197Z,4968.00
2018-09-11T07:17:01.032Z,4912.00
2018-09-11T07:18:00.266Z,4888.00
2018-09-11T07:19:00.221Z,4916.00
2018-09-11T07:20:00.302Z,4924.00
2018-09-11T07:21:00.280Z,4840.00
2018-09-11T07:22:00.230Z,4668.00
2018-09-11T07:23:00.268Z,4440.00
2018-09-11T07:24:00.259Z,4336.00
2018-09-11T07:25:00.783Z,4324.00
2018-09-11T07:26:00.281Z,4188.00
2018-09-11T07:27:00.298Z,4040.00
2018-09-11T07:28:04.902Z,3952.00
2018-09-11T07:29:00.318Z,3968.00
2018-09-11T07:30:00.391Z,4096.00
2018-09-11T07:31:00.331Z,4224.00
2018-09-11T07:32:00.339Z,4200.00
2018-09-11T07:33:00.344Z,4100.00
2018-09-11T07:34:00.417Z,4044.00
2018-09-11T07:35:00.389Z,4072.00
2018-09-11T07:36:01.401Z,4204.00
2018-09-11T07:37:00.421Z,4444.00
2018-09-11T07:38:00.555Z,4668.00
2018-09-11T07:39:00.529Z,4820.00
2018-09-11T07:40:00.864Z,4852.00
2018-09-11T07:41:00.670Z,4672.00
2018-09-11T07:42:00.627Z,4380.00
2018-09-11T07:43:00.487Z,4232.00
2018-09-11T07:44:00.507Z,4296.00
2018-09-11T07:45:00.573Z,4424.00
2018-09-11T07:46:00.556Z,4480.00
2018-09-11T07:47:00.533Z,4408.00
2018-09-11T07:48:00.582Z,4248.00
2018-09-11T07:49:00.595Z,4032.00
2018-09-11T07:50:00.604Z,3884.00
2018-09-11T07:51:00.622Z,3872.00
2018-09-11T07:52:00.618Z,4000.00
2018-09-11T07:53:00.697Z,4112.00
2018-09-11T07:54:00.637Z,4304.00
2018-09-11T07:55:00.655Z,4608.00
2018-09-11T07:56:00.683Z,5124.00
2018-09-11T07:57:00.700Z,5668.00
2018-09-11T07:58:00.798Z,6144.00
2018-09-11T07:59:01.313Z,6420.00
2018-09-11T08:00:00.735Z,6452.00
2018-09-11T08:01:00.739Z,6444.00
2018-09-11T08:02:00.764Z,6284.00
2018-09-11T08:03:00.802Z,6100.00
2018-09-11T08:04:00.922Z,5976.00
2018-09-11T08:05:00.860Z,5852.00
2018-09-11T08:06:00.806Z,5780.00
2018-09-11T08:07:00.826Z,5708.00
2018-09-11T08:08:00.857Z,5692.00
2018-09-11T08:09:00.831Z,5800.00
2018-09-11T08:10:00.867Z,5668.00
2018-09-11T08:11:00.861Z,5220.00
2018-09-11T08:12:00.966Z,4928.00
2018-09-11T08:13:00.880Z,4248.00
2018-09-11T08:14:00.943Z,3668.00
2018-09-11T08:15:00.898Z,3164.00
2018-09-11T08:16:00.922Z,2900.00
2018-09-11T08:17:00.974Z,2956.00
2018-09-11T08:18:00.964Z,3056.00
2018-09-11T08:19:00.966Z,3116.00
2018-09-11T08:20:00.997Z,3112.00
2018-09-11T08:21:00.974Z,3096.00
2018-09-11T08:22:00.993Z,3108.00
2018-09-11T08:23:01.031Z,3120.00
2018-09-11T08:24:01.031Z,3212.00
2018-09-11T08:25:01.045Z,3344.00
2018-09-11T08:26:01.051Z,3384.00
2018-09-11T08:27:01.065Z,3380.00
2018-09-11T08:28:01.142Z,3352.00
2018-09-11T08:29:01.089Z,3288.00
2018-09-11T08:30:01.104Z,3180.00
2018-09-11T08:31:01.109Z,3176.00
2018-09-11T08:32:01.127Z,3172.00
2018-09-11T08:33:01.173Z,3212.00
2018-09-11T08:34:01.154Z,3232.00
2018-09-11T08:35:01.180Z,3272.00
2018-09-11T08:36:01.188Z,3272.00
2018-09-11T08:37:01.268Z,3304.00
2018-09-11T08:38:01.231Z,3320.00
2018-09-11T08:39:01.234Z,3360.00
2018-09-11T08:40:01.240Z,3420.00
2018-09-11T08:41:01.321Z,3508.00
2018-09-11T08:42:01.271Z,3588.00
2018-09-11T08:43:01.261Z,3680.00
2018-09-11T08:44:01.291Z,3788.00
2018-09-11T08:45:01.296Z,3940.00
2018-09-11T08:46:01.303Z,4184.00
2018-09-11T08:47:01.354Z,4264.00
2018-09-11T08:48:01.344Z,4408.00
2018-09-11T08:49:01.368Z,4496.00
2018-09-11T08:50:01.396Z,4656.00
2018-09-11T08:51:01.365Z,4792.00
2018-09-11T08:52:01.451Z,5048.00
2018-09-11T08:53:01.392Z,4984.00
2018-09-11T08:54:01.400Z,4832.00
2018-09-11T08:55:01.446Z,4752.00
2018-09-11T08:56:01.429Z,4640.00
2018-09-11T08:57:01.456Z,4552.00
2018-09-11T08:58:01.464Z,4380.00
2018-09-11T08:59:01.469Z,4236.00
2018-09-11T09:00:01.470Z,4148.00
2018-09-11T09:01:01.495Z,4020.00
2018-09-11T09:02:01.506Z,3920.00
2018-09-11T09:03:01.733Z,3912.00
2018-09-11T09:04:01.570Z,3880.00
2018-09-11T09:05:01.569Z,3896.00
2018-09-11T09:06:01.560Z,3992.00
2018-09-11T09:07:01.581Z,4080.00
2018-09-11T09:08:01.596Z,4136.00
2018-09-11T09:09:01.648Z,4144.00
2018-09-11T09:10:01.628Z,4200.00
2018-09-11T09:11:01.668Z,4260.00
2018-09-11T09:12:01.643Z,4356.00
2018-09-11T09:13:01.749Z,4400.00
2018-09-11T09:14:01.667Z,4472.00
2018-09-11T09:15:01.687Z,4532.00
2018-09-11T09:16:01.766Z,4612.00
2018-09-11T09:17:01.729Z,4696.00
2018-09-11T09:18:01.733Z,4788.00
2018-09-11T09:19:01.728Z,4908.00
2018-09-11T09:20:01.759Z,5040.00
2018-09-11T09:21:01.826Z,5240.00
2018-09-11T09:22:01.826Z,5476.00
2018-09-11T09:23:01.812Z,5740.00
2018-09-11T09:24:01.797Z,5944.00
2018-09-11T09:25:01.818Z,6096.00
2018-09-11T09:26:01.820Z,6200.00
2018-09-11T09:27:01.998Z,6408.00
2018-09-11T09:28:01.855Z,6704.00
2018-09-11T09:29:01.868Z,7108.00
2018-09-11T09:30:01.881Z,7356.00
2018-09-11T09:31:01.891Z,7432.00
2018-09-11T09:32:01.904Z,7344.00
2018-09-11T09:33:01.971Z,7412.00
2018-09-11T09:34:01.904Z,7632.00
2018-09-11T09:35:01.938Z,8008.00
2018-09-11T09:36:01.942Z,8436.00
2018-09-11T09:37:01.985Z,9016.00
2018-09-11T09:38:02.039Z,9328.00
2018-09-11T09:39:01.990Z,9552.00
2018-09-11T09:40:02.017Z,9768.00
2018-09-11T09:41:02.019Z,9956.00
2018-09-11T09:42:02.031Z,10168.00
2018-09-11T09:43:02.091Z,10276.00
2018-09-11T09:44:02.053Z,10268.00
2018-09-11T09:45:02.109Z,10200.00
2018-09-11T09:46:02.111Z,10144.00
2018-09-11T09:47:02.090Z,10088.00
2018-09-11T09:48:02.116Z,10040.00
2018-09-11T09:49:02.127Z,9980.00
2018-09-11T09:50:02.143Z,9864.00
2018-09-11T09:51:02.179Z,9736.00
2018-09-11T09:52:02.179Z,9572.00
2018-09-11T09:53:02.184Z,9428.00
2018-09-11T09:54:02.232Z,9256.00
2018-09-11T09:55:02.209Z,9124.00
2018-09-11T09:56:02.232Z,8920.00
2018-09-11T09:57:02.223Z,8740.00
2018-09-11T09:58:02.273Z,8568.00
2018-09-11T09:59:02.305Z,8356.00
2018-09-11T10:00:02.281Z,8164.00
2018-09-11T10:01:02.312Z,7920.00
2018-09-11T10:02:02.325Z,7624.00
2018-09-11T10:03:02.319Z,7276.00
2018-09-11T10:04:02.569Z,6952.00
2018-09-11T10:05:02.354Z,6668.00
2018-09-11T10:06:02.396Z,6396.00
2018-09-11T10:07:02.386Z,6204.00
2018-09-11T10:08:02.403Z,6008.00
2018-09-11T10:09:02.621Z,5844.00
2018-09-11T10:10:05.070Z,5696.00
2018-09-11T10:11:02.422Z,5552.00
2018-09-11T10:12:02.471Z,5464.00
2018-09-11T10:13:02.479Z,5332.00
2018-09-11T10:14:02.496Z,5136.00
2018-09-11T10:15:02.545Z,4992.00
2018-09-11T10:16:02.522Z,4884.00
2018-09-11T10:17:04.439Z,4808.00
2018-09-11T10:18:02.522Z,4628.00
2018-09-11T10:19:02.589Z,4352.00
2018-09-11T10:20:02.594Z,4072.00
2018-09-11T10:21:02.608Z,3852.00
2018-09-11T10:22:02.636Z,3684.00
2018-09-11T10:23:02.642Z,3540.00
2018-09-11T10:24:02.659Z,3400.00
2018-09-11T10:25:02.732Z,3316.00
2018-09-11T10:26:02.662Z,3348.00
2018-09-11T10:27:02.669Z,3300.00
2018-09-11T10:28:02.688Z,3212.00
2018-09-11T10:29:02.729Z,3124.00
2018-09-11T10:30:02.761Z,3060.00
2018-09-11T10:31:02.718Z,3032.00
2018-09-11T10:32:02.737Z,3032.00
2018-09-11T10:33:02.779Z,3000.00
2018-09-11T10:34:02.766Z,3000.00
2018-09-11T10:35:02.799Z,3032.00
2018-09-11T10:36:02.780Z,3072.00
2018-09-11T10:37:02.799Z,3088.00
2018-09-11T10:38:02.895Z,3116.00
2018-09-11T10:39:02.821Z,3116.00
2018-09-11T10:40:02.862Z,3076.00
2018-09-11T10:41:02.887Z,3056.00
2018-09-11T10:42:02.924Z,3056.00
2018-09-11T10:43:03.040Z,3072.00
2018-09-11T10:44:02.901Z,3044.00
2018-09-11T10:45:02.987Z,3068.00
2018-09-11T10:46:02.938Z,3080.00
2018-09-11T10:47:02.966Z,3108.00
2018-09-11T10:48:03.082Z,3096.00
2018-09-11T10:49:02.963Z,3104.00
2018-09-11T10:50:03.002Z,3120.00
2018-09-11T10:51:03.098Z,3192.00
2018-09-11T10:52:03.054Z,3228.00
2018-09-11T10:53:03.027Z,3304.00
2018-09-11T10:54:03.025Z,3380.00
2018-09-11T10:55:03.077Z,3476.00
2018-09-11T10:56:03.080Z,3580.00
2018-09-11T10:57:03.101Z,3700.00
2018-09-11T10:58:03.181Z,3812.00
2018-09-11T10:59:03.629Z,3908.00
2018-09-11T11:00:03.155Z,4028.00
2018-09-11T11:01:03.175Z,4224.00
2018-09-11T11:02:03.142Z,4428.00
2018-09-11T11:03:03.172Z,4656.00
2018-09-11T11:04:03.184Z,4892.00
2018-09-11T11:05:03.209Z,5172.00
2018-09-11T11:06:03.191Z,5544.00
2018-09-11T11:07:03.260Z,5884.00
2018-09-11T11:08:03.223Z,6212.00
2018-09-11T11:09:03.275Z,6392.00
2018-09-11T11:10:03.252Z,6480.00
2018-09-11T11:11:03.280Z,6572.00
2018-09-11T11:12:03.356Z,6500.00
2018-09-11T11:13:03.313Z,6340.00
2018-09-11T11:14:03.313Z,6132.00
2018-09-11T11:15:03.556Z,5904.00
2018-09-11T11:16:03.331Z,5620.00
2018-09-11T11:17:03.362Z,5520.00
2018-09-11T11:18:03.352Z,5412.00
2018-09-11T11:19:03.391Z,5256.00
2018-09-11T11:20:04.066Z,5104.00
2018-09-11T11:21:03.490Z,4944.00
2018-09-11T11:22:03.440Z,4832.00
2018-09-11T11:23:03.450Z,4760.00
2018-09-11T11:24:03.474Z,4672.00
2018-09-11T11:25:03.479Z,4608.00
2018-09-11T11:26:03.482Z,4568.00
2018-09-11T11:27:03.622Z,4568.00
2018-09-11T11:28:03.497Z,4528.00
2018-09-11T11:29:03.509Z,4552.00
2018-09-11T11:30:03.702Z,4580.00
2018-09-11T11:31:03.555Z,4688.00
2018-09-11T11:32:03.570Z,4776.00
2018-09-11T11:33:03.577Z,4840.00
2018-09-11T11:34:03.586Z,4916.00
2018-09-11T11:35:03.577Z,5040.00
2018-09-11T11:36:03.686Z,5156.00
2018-09-11T11:37:03.741Z,5228.00
2018-09-11T11:38:03.694Z,5360.00
2018-09-11T11:39:03.715Z,5516.00
2018-09-11T11:40:03.678Z,5676.00
2018-09-11T11:41:03.675Z,5824.00
2018-09-11T11:42:03.793Z,5964.00
2018-09-11T11:43:03.692Z,6108.00
2018-09-11T11:44:03.805Z,6236.00
2018-09-11T11:45:03.761Z,6312.00
2018-09-11T11:46:03.786Z,6392.00
2018-09-11T11:47:03.768Z,6488.00
2018-09-11T11:48:03.823Z,6544.00
2018-09-11T11:49:03.839Z,6648.00
2018-09-11T11:50:03.821Z,6668.00
2018-09-11T11:51:03.946Z,6580.00
2018-09-11T11:52:03.840Z,6456.00
2018-09-11T11:53:03.866Z,6340.00
2018-09-11T11:54:03.877Z,6260.00
2018-09-11T11:55:03.941Z,6216.00
2018-09-11T11:56:03.967Z,6236.00
2018-09-11T11:57:03.943Z,6280.00
2018-09-11T11:58:03.932Z,6288.00
2018-09-11T11:59:03.940Z,6304.00
2018-09-11T12:00:03.959Z,6232.00
2018-09-11T12:01:04.242Z,6180.00
2018-09-11T12:02:04.080Z,6108.00
2018-09-11T12:03:04.020Z,6036.00
2018-09-11T12:04:04.036Z,5916.00
2018-09-11T12:05:04.005Z,5896.00
2018-09-11T12:06:04.047Z,5804.00
2018-09-11T12:07:04.037Z,5780.00
2018-09-11T12:08:04.768Z,5712.00
2018-09-11T12:09:04.074Z,5632.00
2018-09-11T12:10:04.133Z,5476.00
2018-09-11T12:11:04.138Z,5340.00
2018-09-11T12:12:04.136Z,5208.00
2018-09-11T12:13:04.149Z,5080.00
2018-09-11T12:14:04.325Z,4904.00
2018-09-11T12:15:04.197Z,4688.00
2018-09-11T12:16:04.216Z,4452.00
2018-09-11T12:17:04.260Z,4220.00
2018-09-11T12:18:04.212Z,4016.00
2018-09-11T12:19:04.215Z,3884.00
2018-09-11T12:20:04.347Z,3756.00
2018-09-11T12:21:04.306Z,3632.00
2018-09-11T12:22:04.386Z,3460.00
2018-09-11T12:23:04.293Z,3360.00
2018-09-11T12:24:04.342Z,3292.00
2018-09-11T12:25:04.362Z,3208.00
2018-09-11T12:26:04.381Z,3096.00
2018-09-11T12:27:04.508Z,3020.00
2018-09-11T12:28:04.356Z,2912.00
2018-09-11T12:29:04.395Z,2764.00
2018-09-11T12:30:04.428Z,2704.00
2018-09-11T12:31:04.471Z,2648.00
2018-09-11T12:32:04.434Z,2556.00